Time;durP1;ratioP1;P1;durP2;ratioP2;P2;SDS_P1;SDS_P2;PMS_P1;PMS_P2;Temp;Humidity;BMP_temperature;BMP_pressure;BME280_temperature;BME280_humidity;BME280_pressure;Samples;Min_cycle;Max_cycle;Signal;HPM_P1;HPM_P2
2023/08/20 00:02:06;;;;;;;18.77;3.05;;;17.30;99.90;;;;;;5036414;28;20473;-57
2023/08/20 00:04:33;;;;;;;16.20;3.50;;;17.20;99.90;;;;;;5035972;28;20041;-56
2023/08/20 00:07:00;;;;;;;15.52;3.55;;;17.20;99.90;;;;;;5035982;28;20132;-58
2023/08/20 00:09:27;;;;;;;17.15;4.07;;;17.20;99.90;;;;;;5036204;28;20045;-52
2023/08/20 00:11:53;;;;;;;17.35;3.22;;;17.20;99.90;;;;;;5036221;28;20049;-57
2023/08/20 00:14:20;;;;;;;15.90;3.38;;;17.20;99.90;;;;;;5035961;28;20120;-54
2023/08/20 00:16:47;;;;;;;18.63;3.47;;;17.20;99.90;;;;;;5035748;28;20060;-59
2023/08/20 00:19:14;;;;;;;13.90;3.10;;;17.20;99.90;;;;;;5035722;28;20045;-54
2023/08/20 00:21:41;;;;;;;14.73;3.53;;;17.20;99.90;;;;;;5035675;28;20099;-53
2023/08/20 00:24:07;;;;;;;13.13;2.97;;;17.20;99.90;;;;;;5035899;28;20037;-53
2023/08/20 00:26:34;;;;;;;13.52;3.10;;;17.20;99.90;;;;;;5035405;28;20037;-51
2023/08/20 00:29:01;;;;;;;13.15;2.85;;;17.20;99.90;;;;;;5035020;28;20073;-56
2023/08/20 00:31:28;;;;;;;13.55;3.35;;;17.10;99.90;;;;;;5033919;28;20045;-54
2023/08/20 00:33:55;;;;;;;14.90;3.35;;;17.10;99.90;;;;;;5034286;28;20041;-57
2023/08/20 00:36:33;;;;;;;15.07;3.30;;;17.10;99.90;;;;;;5034854;28;20057;-59
2023/08/20 00:39:00;;;;;;;15.68;3.30;;;17.10;99.90;;;;;;5034097;28;20068;-57
2023/08/20 00:41:26;;;;;;;14.70;3.10;;;17.10;99.90;;;;;;5034006;28;20037;-58
2023/08/20 00:43:53;;;;;;;15.40;3.00;;;17.00;99.90;;;;;;5035414;28;20128;-56
2023/08/20 00:46:20;;;;;;;19.50;3.67;;;17.00;99.90;;;;;;5035225;28;20546;-57
2023/08/20 00:48:47;;;;;;;13.38;2.83;;;17.00;99.90;;;;;;5034195;28;20054;-53
2023/08/20 00:51:13;;;;;;;12.82;3.15;;;17.00;99.90;;;;;;5033889;28;20140;-57
2023/08/20 00:53:40;;;;;;;19.10;2.92;;;17.00;99.90;;;;;;5033995;28;20061;-57
2023/08/20 00:56:07;;;;;;;12.25;2.85;;;16.90;99.90;;;;;;5035138;28;20396;-53
2023/08/20 00:58:34;;;;;;;15.40;3.00;;;16.90;99.90;;;;;;5017053;28;20056;-51
2023/08/20 01:01:01;;;;;;;11.07;2.60;;;16.90;99.90;;;;;;5033481;28;20103;-57
2023/08/20 01:03:28;;;;;;;12.70;2.60;;;16.90;99.90;;;;;;5035159;28;20041;-59
2023/08/20 01:05:55;;;;;;;13.75;2.92;;;16.90;99.90;;;;;;5035021;28;20068;-54
2023/08/20 01:08:22;;;;;;;15.00;3.10;;;16.80;99.90;;;;;;5035002;28;20469;-57
2023/08/20 01:10:51;;;;;;;16.00;3.00;;;16.80;99.90;;;;;;5033620;28;20077;-57
2023/08/20 01:13:17;;;;;;;13.70;2.85;;;16.80;99.90;;;;;;5034666;28;20045;-58
2023/08/20 01:15:44;;;;;;;15.60;3.33;;;16.80;99.90;;;;;;5033565;28;20140;-59
2023/08/20 01:18:11;;;;;;;17.38;3.40;;;16.70;99.90;;;;;;5033390;28;20037;-57
2023/08/20 01:20:38;;;;;;;12.95;2.67;;;16.70;99.90;;;;;;5033340;28;20054;-59
2023/08/20 01:23:05;;;;;;;13.77;2.83;;;16.70;99.90;;;;;;5034851;28;20463;-57
2023/08/20 01:25:31;;;;;;;17.30;3.40;;;16.60;99.90;;;;;;5035076;28;20384;-54
2023/08/20 01:27:59;;;;;;;11.02;2.55;;;16.60;99.90;;;;;;5034347;28;20049;-61
2023/08/20 01:30:26;;;;;;;15.10;3.00;;;16.60;99.90;;;;;;5033657;28;20037;-59
2023/08/20 01:32:53;;;;;;;15.95;3.22;;;16.60;99.90;;;;;;5034379;28;20049;-60
2023/08/20 01:35:20;;;;;;;13.27;2.85;;;16.60;99.90;;;;;;5033071;28;20050;-58
2023/08/20 01:37:47;;;;;;;15.20;3.33;;;16.60;99.90;;;;;;5034296;28;20441;-60
2023/08/20 01:40:13;;;;;;;13.30;3.47;;;16.60;99.90;;;;;;5034706;28;20132;-57
2023/08/20 01:42:40;;;;;;;14.05;2.47;;;16.50;99.90;;;;;;5034219;28;20037;-54
2023/08/20 01:45:07;;;;;;;11.95;2.92;;;16.50;99.90;;;;;;5034519;28;20124;-55
2023/08/20 01:47:34;;;;;;;10.25;2.40;;;16.50;99.90;;;;;;5033021;28;20079;-58
2023/08/20 01:50:01;;;;;;;12.73;2.78;;;16.50;99.90;;;;;;5034034;28;20046;-60
2023/08/20 01:52:32;;;;;;;12.00;2.65;;;16.50;99.90;;;;;;5034183;28;20052;-59
2023/08/20 01:54:59;;;;;;;14.52;3.55;;;16.50;99.90;;;;;;5032232;28;20144;-57
2023/08/20 01:57:26;;;;;;;10.93;3.70;;;16.40;99.90;;;;;;5032402;28;20041;-59
2023/08/20 01:59:53;;;;;;;16.13;4.05;;;16.40;99.90;;;;;;5032716;28;20588;-56
2023/08/20 02:02:20;;;;;;;18.00;3.65;;;16.40;99.90;;;;;;5032480;28;20038;-57
2023/08/20 02:04:47;;;;;;;18.02;3.63;;;16.40;99.90;;;;;;5034210;28;20430;-58
2023/08/20 02:07:15;;;;;;;18.83;4.40;;;16.40;99.90;;;;;;5032162;28;20140;-59
2023/08/20 02:09:41;;;;;;;23.23;4.57;;;16.40;99.90;;;;;;5033703;28;20489;-54
2023/08/20 02:12:08;;;;;;;19.02;4.60;;;16.40;99.90;;;;;;5033463;28;20094;-60
2023/08/20 02:14:35;;;;;;;16.63;4.97;;;16.40;99.90;;;;;;5032360;28;20045;-60
2023/08/20 02:17:02;;;;;;;20.52;5.20;;;16.30;99.90;;;;;;5033613;28;20090;-56
2023/08/20 02:19:29;;;;;;;16.85;5.38;;;16.40;99.90;;;;;;5033829;28;20548;-58
2023/08/20 02:21:56;;;;;;;22.15;6.20;;;16.40;99.90;;;;;;5032334;28;20038;-59
2023/08/20 02:24:22;;;;;;;20.20;6.13;;;16.40;99.90;;;;;;5031957;28;20100;-54
2023/08/20 02:26:49;;;;;;;18.95;6.35;;;16.40;99.90;;;;;;5032132;28;20053;-56
2023/08/20 02:29:16;;;;;;;18.38;5.82;;;16.40;99.90;;;;;;5032156;28;20049;-56
2023/08/20 02:31:43;;;;;;;18.45;5.75;;;16.30;99.90;;;;;;5032224;28;20898;-56
2023/08/20 02:34:10;;;;;;;22.55;6.13;;;16.30;99.90;;;;;;5032226;28;20052;-57
2023/08/20 02:36:38;;;;;;;25.80;6.35;;;16.30;99.90;;;;;;5031896;28;20046;-60
2023/08/20 02:39:07;;;;;;;22.05;6.40;;;16.30;99.90;;;;;;5033910;28;20447;-57
2023/08/20 02:41:35;;;;;;;22.67;5.95;;;16.30;99.90;;;;;;5033515;28;20438;-56
2023/08/20 02:44:02;;;;;;;22.55;6.57;;;16.30;99.90;;;;;;5033209;28;20037;-53
2023/08/20 02:46:29;;;;;;;18.38;6.10;;;16.30;99.90;;;;;;5033622;28;20407;-57
2023/08/20 02:48:56;;;;;;;15.10;5.68;;;16.30;99.90;;;;;;5033475;28;20056;-54
2023/08/20 02:51:23;;;;;;;22.80;6.15;;;16.30;99.90;;;;;;5031990;28;20111;-56
2023/08/20 02:53:50;;;;;;;18.45;6.00;;;16.30;99.90;;;;;;5015281;28;20049;-56
2023/08/20 02:56:17;;;;;;;23.00;6.55;;;16.30;99.90;;;;;;5031646;28;20119;-53
2023/08/20 02:58:44;;;;;;;20.15;6.00;;;16.30;99.90;;;;;;5031380;28;20041;-58
2023/08/20 03:01:11;;;;;;;15.15;5.97;;;16.30;99.90;;;;;;5031873;28;20144;-59
2023/08/20 03:03:41;;;;;;;19.48;6.30;;;16.20;99.90;;;;;;5033333;28;20049;-55
2023/08/20 03:06:08;;;;;;;20.98;6.10;;;16.20;99.90;;;;;;5031485;28;20042;-54
2023/08/20 03:08:35;;;;;;;17.55;6.43;;;16.20;99.90;;;;;;5033114;28;20045;-57
2023/08/20 03:11:03;;;;;;;23.35;7.25;;;16.20;99.90;;;;;;5031724;28;20037;-55
2023/08/20 03:13:29;;;;;;;20.98;5.75;;;16.20;99.90;;;;;;5033366;28;20037;-59
2023/08/20 03:15:56;;;;;;;25.48;6.75;;;16.20;99.90;;;;;;5031417;28;20075;-59
2023/08/20 03:18:23;;;;;;;21.25;6.80;;;16.20;99.90;;;;;;5031354;28;20041;-56
2023/08/20 03:20:50;;;;;;;18.90;7.00;;;16.20;99.90;;;;;;5031125;28;20042;-60
2023/08/20 03:23:17;;;;;;;18.42;6.93;;;16.20;99.90;;;;;;5031188;28;20048;-57
2023/08/20 03:25:43;;;;;;;17.60;6.53;;;16.20;99.90;;;;;;5032714;28;20057;-55
2023/08/20 03:28:10;;;;;;;18.27;6.60;;;16.20;99.90;;;;;;5031495;28;20059;-54
2023/08/20 03:30:37;;;;;;;20.27;7.43;;;16.20;99.90;;;;;;5031511;28;20065;-60
2023/08/20 03:33:04;;;;;;;15.82;6.53;;;16.20;99.90;;;;;;5032954;28;20381;-55
2023/08/20 03:35:34;;;;;;;18.48;6.18;;;16.20;99.90;;;;;;5032672;28;20562;-55
2023/08/20 03:38:01;;;;;;;16.55;5.95;;;16.20;99.90;;;;;;5031377;28;20073;-56
2023/08/20 03:40:28;;;;;;;21.25;6.20;;;16.20;99.90;;;;;;5032916;28;20128;-57
2023/08/20 03:42:55;;;;;;;24.48;7.00;;;16.20;99.90;;;;;;5031739;28;20038;-54
2023/08/20 03:45:21;;;;;;;18.45;6.50;;;16.20;99.90;;;;;;5033199;28;20045;-58
2023/08/20 03:47:48;;;;;;;18.35;6.50;;;16.20;99.90;;;;;;5031341;28;20088;-57
2023/08/20 03:50:16;;;;;;;17.13;6.15;;;16.10;99.90;;;;;;5031574;28;20111;-55
2023/08/20 03:52:44;;;;;;;25.20;6.85;;;16.20;99.90;;;;;;5031278;28;20049;-59
2023/08/20 03:55:11;;;;;;;19.90;6.05;;;16.20;99.90;;;;;;5031217;28;20037;-59
2023/08/20 03:57:37;;;;;;;22.33;7.05;;;16.20;99.90;;;;;;5031008;28;20056;-57
2023/08/20 04:00:04;;;;;;;18.23;5.82;;;16.20;99.90;;;;;;5032810;28;20037;-57
2023/08/20 04:02:40;;;;;;;15.65;5.72;;;16.20;99.90;;;;;;5032585;28;20049;-53
2023/08/20 04:05:07;;;;;;;19.73;6.60;;;16.10;99.90;;;;;;5031250;28;20053;-57
2023/08/20 04:07:34;;;;;;;24.85;7.70;;;16.10;99.90;;;;;;5032523;28;20385;-58
2023/08/20 04:10:01;;;;;;;20.48;6.75;;;16.10;99.90;;;;;;5032833;28;20045;-59
2023/08/20 04:12:28;;;;;;;26.08;7.97;;;16.10;99.90;;;;;;5034587;28;20397;-56
2023/08/20 04:14:55;;;;;;;23.73;8.18;;;16.10;99.90;;;;;;5035969;28;20404;-53
2023/08/20 04:17:22;;;;;;;22.65;8.55;;;16.10;99.90;;;;;;5036067;28;20365;-59
2023/08/20 04:19:51;;;;;;;26.70;9.25;;;16.10;99.90;;;;;;5034455;28;20482;-55
2023/08/20 04:22:17;;;;;;;21.00;8.32;;;16.10;99.90;;;;;;5035983;28;20033;-57
2023/08/20 04:24:44;;;;;;;20.38;8.35;;;16.10;99.90;;;;;;5034304;28;20048;-58
2023/08/20 04:27:11;;;;;;;20.88;8.25;;;16.00;99.90;;;;;;5035530;28;20053;-58
2023/08/20 04:29:41;;;;;;;20.88;8.30;;;16.00;99.90;;;;;;5034652;28;20050;-59
2023/08/20 04:32:08;;;;;;;21.60;8.82;;;16.00;99.90;;;;;;5034495;28;20132;-57
2023/08/20 04:34:35;;;;;;;24.67;8.98;;;16.00;99.90;;;;;;5034570;28;20041;-59
2023/08/20 04:37:02;;;;;;;21.75;8.40;;;15.90;99.90;;;;;;5033965;28;20041;-56
2023/08/20 04:39:29;;;;;;;22.00;8.98;;;15.90;99.90;;;;;;5034476;28;20125;-57
2023/08/20 04:41:57;;;;;;;20.45;8.73;;;15.90;99.90;;;;;;5033927;28;20045;-58
2023/08/20 04:44:25;;;;;;;21.92;9.43;;;15.90;99.90;;;;;;5035740;28;20037;-58
2023/08/20 04:46:54;;;;;;;24.25;9.38;;;15.90;99.90;;;;;;5033548;28;20057;-58
2023/08/20 04:49:21;;;;;;;16.25;8.32;;;15.90;99.90;;;;;;5033541;28;20072;-55
2023/08/20 04:51:48;;;;;;;20.95;9.57;;;15.80;99.90;;;;;;5034167;28;20041;-56
2023/08/20 04:54:16;;;;;;;15.65;8.50;;;15.80;99.90;;;;;;5034055;28;20100;-57
2023/08/20 04:56:43;;;;;;;22.55;10.00;;;15.80;99.90;;;;;;5035047;28;20124;-58
2023/08/20 04:59:11;;;;;;;22.90;8.85;;;15.80;99.90;;;;;;5034141;28;20042;-59
2023/08/20 05:01:50;;;;;;;19.35;9.15;;;15.80;99.90;;;;;;5035277;28;20056;-55
2023/08/20 05:04:22;;;;;;;22.42;9.70;;;15.80;99.90;;;;;;5034004;28;20049;-58
2023/08/20 05:06:48;;;;;;;16.10;9.13;;;15.80;99.90;;;;;;5033764;28;20136;-59
2023/08/20 05:09:16;;;;;;;23.05;8.98;;;15.80;99.90;;;;;;5033815;28;20132;-56
2023/08/20 05:11:43;;;;;;;21.73;8.57;;;15.80;99.90;;;;;;5033662;28;20052;-58
2023/08/20 05:14:09;;;;;;;23.00;8.48;;;15.80;99.90;;;;;;5033901;28;20038;-58
2023/08/20 05:16:37;;;;;;;23.02;7.85;;;15.80;99.90;;;;;;5034932;28;20376;-53
2023/08/20 05:19:03;;;;;;;17.60;6.90;;;15.80;99.90;;;;;;5034959;28;20069;-59
2023/08/20 05:21:31;;;;;;;15.27;6.95;;;15.90;99.90;;;;;;5033831;28;20052;-56
2023/08/20 05:23:58;;;;;;;18.00;6.45;;;15.90;99.90;;;;;;5033307;28;20045;-58
2023/08/20 05:26:25;;;;;;;17.83;5.90;;;15.90;99.90;;;;;;5033543;28;20046;-57
2023/08/20 05:28:52;;;;;;;18.95;6.25;;;16.00;99.90;;;;;;5033526;28;20045;-57
2023/08/20 05:31:19;;;;;;;16.20;5.72;;;16.00;99.90;;;;;;5033493;28;20050;-57
2023/08/20 05:33:46;;;;;;;16.50;5.25;;;16.10;99.90;;;;;;5016970;28;20061;-59
2023/08/20 05:36:13;;;;;;;15.00;4.75;;;16.10;99.90;;;;;;5032900;28;20052;-55
2023/08/20 05:38:42;;;;;;;18.67;5.07;;;16.20;99.90;;;;;;5033118;28;20518;-55
2023/08/20 05:41:09;;;;;;;18.55;4.75;;;16.20;99.90;;;;;;5033056;28;20045;-57
2023/08/20 05:43:36;;;;;;;17.33;5.25;;;16.20;99.90;;;;;;5033034;28;20065;-57
2023/08/20 05:46:04;;;;;;;15.55;4.45;;;16.30;99.90;;;;;;5033096;28;20041;-62
2023/08/20 05:48:31;;;;;;;15.63;4.22;;;16.30;99.90;;;;;;5032947;28;20127;-57
2023/08/20 05:50:57;;;;;;;16.80;4.53;;;16.40;99.90;;;;;;5032795;28;20516;-52
2023/08/20 05:53:24;;;;;;;17.27;4.55;;;16.40;99.90;;;;;;5033021;28;20069;-57
2023/08/20 05:55:51;;;;;;;16.73;5.30;;;16.40;99.90;;;;;;5034058;28;20033;-58
2023/08/20 05:58:18;;;;;;;17.38;4.45;;;16.40;99.90;;;;;;5032329;28;20065;-51
2023/08/20 06:00:45;;;;;;;18.05;3.70;;;16.50;99.90;;;;;;5033994;28;20077;-51
2023/08/20 06:03:12;;;;;;;18.88;4.28;;;16.50;99.90;;;;;;5033702;28;20037;-57
2023/08/20 06:05:38;;;;;;;20.52;3.50;;;16.60;99.90;;;;;;5033701;28;20416;-57
2023/08/20 06:08:06;;;;;;;18.58;3.90;;;16.70;99.90;;;;;;5033929;28;20381;-58
2023/08/20 06:10:32;;;;;;;15.68;3.83;;;16.80;99.90;;;;;;5033582;28;20072;-56
2023/08/20 06:12:59;;;;;;;18.40;3.95;;;16.80;99.90;;;;;;5033412;28;20052;-60
2023/08/20 06:15:26;;;;;;;14.57;3.92;;;16.90;99.90;;;;;;5033485;28;20120;-61
2023/08/20 06:17:53;;;;;;;13.35;3.33;;;16.90;99.90;;;;;;5033300;28;20067;-59
2023/08/20 06:20:20;;;;;;;19.00;3.35;;;17.00;99.90;;;;;;5033436;28;20045;-54
2023/08/20 06:22:47;;;;;;;19.50;4.30;;;17.10;99.90;;;;;;5032162;28;20384;-56
2023/08/20 06:25:13;;;;;;;16.40;4.05;;;17.20;99.90;;;;;;5033180;28;20045;-57
2023/08/20 06:27:40;;;;;;;15.77;3.55;;;17.30;99.90;;;;;;5032991;28;20081;-59
2023/08/20 06:30:08;;;;;;;17.63;3.78;;;17.30;99.90;;;;;;5033195;28;20050;-57
2023/08/20 06:32:35;;;;;;;15.07;3.85;;;17.40;99.90;;;;;;5032883;28;20100;-57
2023/08/20 06:35:02;;;;;;;17.58;3.83;;;17.50;99.90;;;;;;5032699;28;20038;-59
2023/08/20 06:37:28;;;;;;;16.83;3.50;;;17.50;99.90;;;;;;5033352;28;20046;-53
2023/08/20 06:39:55;;;;;;;17.83;4.55;;;17.60;99.90;;;;;;5033365;28;20089;-57
2023/08/20 06:42:22;;;;;;;12.50;3.45;;;17.60;99.90;;;;;;5033362;28;20037;-56
2023/08/20 06:44:49;;;;;;;12.95;3.53;;;17.60;99.90;;;;;;5033316;28;20111;-55
2023/08/20 06:47:15;;;;;;;16.52;4.07;;;17.60;99.90;;;;;;5032975;28;20408;-55
2023/08/20 06:49:42;;;;;;;16.75;3.90;;;17.60;99.90;;;;;;5033315;28;20041;-55
2023/08/20 06:52:09;;;;;;;16.98;4.82;;;17.60;99.90;;;;;;5033564;28;20041;-52
2023/08/20 06:54:36;;;;;;;15.48;3.95;;;17.60;99.90;;;;;;5033621;28;20045;-57
2023/08/20 06:57:03;;;;;;;14.55;4.05;;;17.60;99.90;;;;;;5033207;28;20374;-54
2023/08/20 06:59:29;;;;;;;12.73;4.50;;;17.70;99.90;;;;;;5033396;28;20046;-56
2023/08/20 07:01:56;;;;;;;16.17;4.53;;;17.70;99.90;;;;;;5033223;28;20116;-61
2023/08/20 07:04:23;;;;;;;14.73;3.70;;;17.70;99.90;;;;;;5033034;28;20472;-54
2023/08/20 07:06:50;;;;;;;12.85;3.63;;;17.70;99.90;;;;;;5032904;28;20392;-58
2023/08/20 07:09:17;;;;;;;13.68;3.63;;;17.80;99.90;;;;;;5031813;28;20057;-59
2023/08/20 07:11:44;;;;;;;15.38;3.80;;;17.80;99.90;;;;;;5033373;28;20045;-54
2023/08/20 07:14:14;;;;;;;14.18;3.50;;;17.80;99.90;;;;;;5033023;28;20045;-59
2023/08/20 07:16:41;;;;;;;13.77;3.47;;;17.90;99.90;;;;;;5032941;28;20439;-58
2023/08/20 07:19:07;;;;;;;15.10;3.00;;;17.90;99.90;;;;;;5033043;28;20041;-57
2023/08/20 07:21:34;;;;;;;12.00;2.78;;;18.00;99.90;;;;;;5032854;28;20049;-59
2023/08/20 07:24:01;;;;;;;11.05;3.78;;;18.00;99.90;;;;;;5032888;28;20099;-60
2023/08/20 07:26:28;;;;;;;11.15;2.63;;;18.10;99.90;;;;;;5033036;28;20091;-58
2023/08/20 07:28:58;;;;;;;13.02;2.30;;;18.10;99.90;;;;;;5033061;28;20053;-58
2023/08/20 07:31:25;;;;;;;13.88;3.03;;;18.20;99.90;;;;;;5032786;28;20449;-59
2023/08/20 07:33:52;;;;;;;10.48;2.33;;;18.30;99.90;;;;;;5032653;28;20061;-57
2023/08/20 07:36:18;;;;;;;12.25;2.67;;;18.30;99.90;;;;;;5032513;28;20046;-55
2023/08/20 07:38:45;;;;;;;11.40;1.92;;;18.30;99.90;;;;;;5032273;28;20030;-59
2023/08/20 07:41:12;;;;;;;13.93;2.55;;;18.40;99.90;;;;;;5032575;28;20426;-60
2023/08/20 07:43:39;;;;;;;12.15;2.45;;;18.50;99.90;;;;;;5032890;28;20362;-57
2023/08/20 07:46:06;;;;;;;10.02;2.33;;;18.50;99.90;;;;;;5033496;28;20041;-55
2023/08/20 07:48:33;;;;;;;9.85;2.58;;;18.60;99.90;;;;;;5035939;28;20061;-57
2023/08/20 07:50:59;;;;;;;8.07;2.00;;;18.80;99.90;;;;;;5035135;28;20045;-57
2023/08/20 07:53:26;;;;;;;10.65;2.20;;;18.90;99.90;;;;;;5035974;28;20051;-62
2023/08/20 07:55:53;;;;;;;12.60;2.60;;;19.10;99.90;;;;;;5035390;28;20039;-58
2023/08/20 07:58:20;;;;;;;10.43;2.90;;;19.30;99.90;;;;;;5035273;28;20404;-57
2023/08/20 08:00:47;;;;;;;10.68;2.42;;;19.30;99.90;;;;;;5035914;28;20042;-59
2023/08/20 08:03:17;;;;;;;12.73;2.33;;;19.50;99.90;;;;;;5034760;28;20037;-59
2023/08/20 08:05:44;;;;;;;12.20;2.30;;;19.60;99.90;;;;;;5035599;28;20096;-57
2023/08/20 08:08:11;;;;;;;10.88;2.08;;;19.80;99.90;;;;;;5034590;28;20041;-56
2023/08/20 08:10:37;;;;;;;12.38;2.33;;;19.90;99.90;;;;;;5035714;28;20045;-58
2023/08/20 08:13:04;;;;;;;12.48;2.60;;;20.00;99.90;;;;;;5035316;28;20060;-56
2023/08/20 08:15:31;;;;;;;13.32;2.80;;;20.00;99.90;;;;;;5035118;28;20396;-56
2023/08/20 08:17:58;;;;;;;13.80;2.90;;;20.10;99.90;;;;;;5035417;28;20132;-59
2023/08/20 08:20:25;;;;;;;13.70;2.42;;;20.00;99.90;;;;;;5033159;28;20080;-58
2023/08/20 08:22:51;;;;;;;14.18;2.47;;;20.00;99.90;;;;;;5035470;28;20394;-60
2023/08/20 08:25:19;;;;;;;10.55;2.33;;;20.00;99.90;;;;;;5033555;28;20037;-57
2023/08/20 08:27:46;;;;;;;8.43;1.77;;;20.00;99.90;;;;;;5035033;28;20116;-58
2023/08/20 08:30:26;;;;;;;8.18;2.03;;;20.10;99.90;;;;;;5035570;28;20129;-59
2023/08/20 08:32:53;;;;;;;10.32;2.30;;;20.20;99.90;;;;;;5034890;28;20044;-59
2023/08/20 08:35:20;;;;;;;12.23;2.38;;;20.30;99.90;;;;;;5035140;28;20100;-58
2023/08/20 08:37:47;;;;;;;11.13;2.88;;;20.40;99.90;;;;;;5034568;28;20099;-58
2023/08/20 08:40:13;;;;;;;12.70;2.40;;;20.60;99.90;;;;;;5033610;28;20045;-60
2023/08/20 08:42:40;;;;;;;14.50;2.58;;;20.80;99.90;;;;;;5035054;28;20407;-60
2023/08/20 08:45:07;;;;;;;10.77;2.05;;;20.80;99.90;;;;;;5034190;28;20034;-59
2023/08/20 08:47:34;;;;;;;7.97;1.80;;;20.80;99.90;;;;;;5034915;28;20045;-59
2023/08/20 08:50:01;;;;;;;8.68;2.13;;;20.90;99.90;;;;;;5033946;28;20050;-60
2023/08/20 08:52:28;;;;;;;11.10;2.22;;;20.90;99.90;;;;;;5034899;28;20041;-54
2023/08/20 08:54:55;;;;;;;11.82;2.40;;;21.00;99.90;;;;;;5033814;28;20065;-51
2023/08/20 08:57:21;;;;;;;10.40;2.25;;;21.10;99.90;;;;;;5034286;28;20123;-56
2023/08/20 08:59:48;;;;;;;9.50;2.28;;;21.10;99.90;;;;;;5034488;28;20056;-57
2023/08/20 09:02:15;;;;;;;9.23;2.17;;;21.20;99.90;;;;;;5033736;28;20041;-58
2023/08/20 09:04:42;;;;;;;9.52;2.03;;;21.20;99.90;;;;;;5034389;28;20033;-57
2023/08/20 09:07:08;;;;;;;7.38;1.73;;;21.20;99.90;;;;;;5034474;28;20045;-54
2023/08/20 09:09:36;;;;;;;10.27;2.05;;;21.20;99.90;;;;;;5033045;28;20041;-56
2023/08/20 09:12:03;;;;;;;12.98;2.42;;;21.20;99.90;;;;;;5034458;28;20052;-60
2023/08/20 09:14:30;;;;;;;6.72;1.83;;;21.10;99.90;;;;;;5033767;28;20050;-58
2023/08/20 09:16:57;;;;;;;10.18;2.28;;;21.10;99.90;;;;;;5034463;28;20120;-55
2023/08/20 09:19:24;;;;;;;10.98;2.03;;;21.10;99.90;;;;;;5034265;28;20034;-57
2023/08/20 09:21:53;;;;;;;8.68;1.80;;;21.10;99.90;;;;;;5033615;28;20049;-59
2023/08/20 09:24:19;;;;;;;8.23;1.65;;;21.20;99.90;;;;;;5034301;28;20103;-54
2023/08/20 09:26:46;;;;;;;5.50;1.73;;;21.30;99.90;;;;;;5034154;28;20052;-56
2023/08/20 09:29:13;;;;;;;9.75;1.90;;;21.30;99.90;;;;;;5034028;28;20499;-54
2023/08/20 09:31:40;;;;;;;6.82;1.77;;;21.40;99.90;;;;;;5033837;28;20072;-56
2023/08/20 09:34:07;;;;;;;8.13;1.90;;;21.40;99.90;;;;;;5033858;28;20045;-57
2023/08/20 09:36:33;;;;;;;8.15;1.95;;;21.40;99.90;;;;;;5033698;28;20034;-52
2023/08/20 09:39:00;;;;;;;11.70;2.15;;;21.50;99.90;;;;;;5033859;28;20404;-54
2023/08/20 09:41:27;;;;;;;9.23;2.15;;;21.50;99.90;;;;;;5033870;28;20038;-57
2023/08/20 09:43:54;;;;;;;6.05;1.80;;;21.50;99.90;;;;;;5032632;28;20042;-57
2023/08/20 09:46:21;;;;;;;15.50;2.28;;;21.60;99.90;;;;;;5033424;28;20047;-56
2023/08/20 09:48:48;;;;;;;10.57;2.00;;;21.60;99.90;;;;;;5033478;28;20448;-60
2023/08/20 09:51:15;;;;;;;9.13;1.90;;;21.60;99.90;;;;;;5032271;28;20041;-55
2023/08/20 09:53:41;;;;;;;7.88;1.85;;;21.50;99.90;;;;;;5034271;28;20041;-56
2023/08/20 09:56:08;;;;;;;7.50;1.98;;;21.50;99.90;;;;;;5033219;28;20576;-59
2023/08/20 09:58:35;;;;;;;9.23;2.00;;;21.40;99.90;;;;;;5033724;28;20063;-56
2023/08/20 10:01:02;;;;;;;8.98;1.80;;;21.40;99.90;;;;;;5033309;28;20492;-55
2023/08/20 10:03:28;;;;;;;10.98;2.00;;;21.50;99.90;;;;;;5033802;28;20407;-58
2023/08/20 10:05:58;;;;;;;10.27;2.13;;;21.50;99.90;;;;;;5033583;28;20457;-56
2023/08/20 10:08:24;;;;;;;7.90;1.77;;;21.60;99.90;;;;;;5032638;28;20083;-57
2023/08/20 10:10:51;;;;;;;9.20;1.40;;;21.70;99.90;;;;;;5032198;28;20116;-54
2023/08/20 10:13:18;;;;;;;7.20;1.67;;;21.70;99.90;;;;;;5029352;28;20037;-56
2023/08/20 10:15:46;;;;;;;8.30;1.83;;;21.70;99.90;;;;;;5031411;28;20140;-57
2023/08/20 10:18:13;;;;;;;6.43;1.73;;;21.80;99.90;;;;;;5029337;28;20047;-58
2023/08/20 10:20:40;;;;;;;6.78;1.55;;;21.80;99.90;;;;;;5032643;28;20041;-56
2023/08/20 10:23:07;;;;;;;5.32;1.27;;;21.90;99.90;;;;;;5032686;28;20053;-57
2023/08/20 10:25:34;;;;;;;10.50;1.73;;;21.90;99.90;;;;;;5032693;28;20562;-59
2023/08/20 10:28:01;;;;;;;10.27;1.90;;;22.00;99.90;;;;;;5032797;28;20053;-59
2023/08/20 10:30:28;;;;;;;6.70;1.73;;;22.10;99.90;;;;;;5034333;28;20038;-57
2023/08/20 10:32:55;;;;;;;7.03;1.70;;;22.20;99.90;;;;;;5031339;28;20042;-57
2023/08/20 10:35:21;;;;;;;6.40;1.60;;;22.30;99.90;;;;;;5032364;28;20045;-56
2023/08/20 10:37:48;;;;;;;5.95;1.40;;;22.40;99.90;;;;;;5032420;28;20049;-56
2023/08/20 10:40:15;;;;;;;8.88;1.48;;;22.40;99.90;;;;;;5032320;28;20037;-57
2023/08/20 10:42:43;;;;;;;7.32;1.63;;;22.40;99.90;;;;;;5032357;28;20499;-57
2023/08/20 10:45:10;;;;;;;9.38;1.80;;;22.30;99.90;;;;;;5030140;28;20029;-55
2023/08/20 10:47:37;;;;;;;8.35;2.05;;;22.30;99.90;;;;;;5031999;28;20068;-59
2023/08/20 10:50:04;;;;;;;8.20;1.77;;;22.40;99.90;;;;;;5032156;28;20034;-53
2023/08/20 10:52:31;;;;;;;9.88;1.95;;;22.50;99.90;;;;;;5023566;28;20041;-56
2023/08/20 10:54:59;;;;;;;8.43;1.67;;;22.70;99.90;;;;;;5031587;28;20096;-55
2023/08/20 10:57:27;;;;;;;9.13;2.00;;;22.90;99.90;;;;;;5032932;28;20045;-55
2023/08/20 10:59:54;;;;;;;4.78;1.50;;;23.10;99.90;;;;;;5032609;28;20037;-58
2023/08/20 11:02:21;;;;;;;7.90;1.63;;;23.20;99.90;;;;;;5031408;28;20053;-59
2023/08/20 11:04:48;;;;;;;5.97;1.50;;;23.30;99.40;;;;;;5032684;28;20046;-55
2023/08/20 11:07:14;;;;;;;5.05;1.40;;;23.30;99.20;;;;;;5032722;28;20394;-56
2023/08/20 11:09:41;;;;;;;6.05;1.75;;;23.40;99.30;;;;;;5032155;28;20377;-57
2023/08/20 11:12:08;;;;;;;6.32;1.67;;;23.40;99.00;;;;;;5031961;28;20041;-59
2023/08/20 11:14:35;;;;;;;4.53;1.48;;;23.40;99.40;;;;;;5032314;28;20037;-58
2023/08/20 11:17:01;;;;;;;5.47;1.55;;;23.50;98.70;;;;;;5032126;28;20100;-55
2023/08/20 11:19:29;;;;;;;7.10;1.60;;;23.40;98.50;;;;;;5033223;28;20477;-54
2023/08/20 11:21:55;;;;;;;5.30;1.40;;;23.50;98.30;;;;;;5036747;28;20433;-56
2023/08/20 11:24:22;;;;;;;6.47;1.40;;;23.50;98.60;;;;;;5036711;28;20412;-60
2023/08/20 11:26:49;;;;;;;6.20;1.60;;;23.50;98.80;;;;;;5036607;28;20105;-60
2023/08/20 11:29:20;;;;;;;5.78;1.48;;;23.50;98.90;;;;;;5035379;28;20037;-57
2023/08/20 11:31:47;;;;;;;6.50;1.45;;;23.70;98.60;;;;;;5036177;28;20707;-55
2023/08/20 11:34:14;;;;;;;4.88;1.40;;;23.90;98.50;;;;;;5035503;28;20041;-54
2023/08/20 11:36:41;;;;;;;5.03;1.35;;;24.00;98.30;;;;;;5035857;28;20099;-58
2023/08/20 11:39:08;;;;;;;4.95;1.10;;;24.10;97.20;;;;;;5035233;28;20038;-55
2023/08/20 11:41:34;;;;;;;5.65;1.55;;;24.10;96.80;;;;;;5028666;28;20037;-55
2023/08/20 11:44:02;;;;;;;4.63;1.50;;;24.10;96.30;;;;;;5035942;28;20049;-56
2023/08/20 11:46:29;;;;;;;4.30;1.30;;;24.00;96.70;;;;;;5036146;28;20048;-59
2023/08/20 11:48:56;;;;;;;5.65;1.35;;;24.00;96.70;;;;;;5034889;28;20061;-56
2023/08/20 11:51:23;;;;;;;6.38;1.30;;;23.90;96.40;;;;;;5036376;28;20492;-60
2023/08/20 11:53:49;;;;;;;4.72;1.35;;;23.90;96.20;;;;;;5034831;28;20037;-56
2023/08/20 11:56:16;;;;;;;5.22;1.40;;;23.90;96.30;;;;;;5035428;28;20053;-59
2023/08/20 11:58:43;;;;;;;3.28;1.15;;;23.80;96.50;;;;;;5034899;28;20034;-60
2023/08/20 12:01:10;;;;;;;2.75;0.82;;;23.80;96.60;;;;;;5035823;28;20088;-61
2023/08/20 12:03:36;;;;;;;3.78;1.30;;;23.80;95.70;;;;;;5035794;28;20041;-59
2023/08/20 12:06:03;;;;;;;4.80;1.42;;;23.70;96.40;;;;;;5035491;28;20045;-57
2023/08/20 12:08:30;;;;;;;3.40;0.95;;;23.70;96.60;;;;;;5035771;28;20048;-57
2023/08/20 12:10:57;;;;;;;5.65;1.38;;;23.70;96.50;;;;;;5035401;28;20116;-58
2023/08/20 12:13:24;;;;;;;4.97;1.00;;;23.70;96.30;;;;;;5034295;28;20136;-55
2023/08/20 12:15:50;;;;;;;4.35;1.20;;;23.70;96.00;;;;;;5034925;28;20041;-60
2023/08/20 12:18:17;;;;;;;4.38;0.98;;;23.80;95.90;;;;;;5035408;28;20476;-58
2023/08/20 12:20:44;;;;;;;4.53;0.98;;;23.80;96.10;;;;;;5034831;28;20476;-60
2023/08/20 12:23:12;;;;;;;4.35;1.10;;;23.90;95.70;;;;;;5035431;28;20045;-60
2023/08/20 12:25:39;;;;;;;3.67;1.00;;;24.00;95.90;;;;;;5035478;28;20389;-60
2023/08/20 12:28:05;;;;;;;5.45;1.38;;;24.10;96.20;;;;;;5034193;28;20392;-57
2023/08/20 12:30:33;;;;;;;5.25;1.10;;;24.30;95.90;;;;;;5034936;28;20041;-58
2023/08/20 12:33:04;;;;;;;4.15;1.10;;;24.30;96.40;;;;;;5033398;28;20046;-58
2023/08/20 12:35:31;;;;;;;4.55;0.93;;;24.40;94.90;;;;;;5033820;28;20054;-58
2023/08/20 12:37:58;;;;;;;4.32;1.23;;;24.40;94.70;;;;;;5034172;28;20463;-57
2023/08/20 12:40:25;;;;;;;3.72;1.05;;;24.40;94.60;;;;;;5034394;28;20037;-56